sensor_id;sensor_type;location;lat;lon;timestamp;pressure;altitude;pressure_sealevel;temperature;humidity
75418;BME280;63997;52.112;5.420;2023-04-06T00:02:18;102014.44;;;1.35;77.91
75418;BME280;63997;52.112;5.420;2023-04-06T00:04:44;102016.50;;;1.32;77.95
75418;BME280;63997;52.112;5.420;2023-04-06T00:07:11;102003.41;;;1.32;78.04
75418;BME280;63997;52.112;5.420;2023-04-06T00:09:37;102007.59;;;1.33;77.87
75418;BME280;63997;52.112;5.420;2023-04-06T00:12:04;102005.22;;;1.32;77.97
75418;BME280;63997;52.112;5.420;2023-04-06T00:14:30;102004.44;;;1.31;78.27
75418;BME280;63997;52.112;5.420;2023-04-06T00:16:57;101998.63;;;1.29;78.17
75418;BME280;63997;52.112;5.420;2023-04-06T00:19:23;102006.13;;;1.26;78.12
75418;BME280;63997;52.112;5.420;2023-04-06T00:21:51;102007.03;;;1.20;77.94
75418;BME280;63997;52.112;5.420;2023-04-06T00:24:17;102002.47;;;1.15;77.74
75418;BME280;63997;52.112;5.420;2023-04-06T00:26:43;102006.13;;;1.14;77.66
75418;BME280;63997;52.112;5.420;2023-04-06T00:29:10;102001.34;;;1.11;77.62
75418;BME280;63997;52.112;5.420;2023-04-06T00:31:36;101994.38;;;1.05;77.98
75418;BME280;63997;52.112;5.420;2023-04-06T00:34:03;101993.03;;;1.02;78.25
75418;BME280;63997;52.112;5.420;2023-04-06T00:36:29;101988.34;;;1.04;78.50
75418;BME280;63997;52.112;5.420;2023-04-06T00:38:56;101984.25;;;1.09;78.73
75418;BME280;63997;52.112;5.420;2023-04-06T00:41:22;101974.56;;;1.09;78.56
75418;BME280;63997;52.112;5.420;2023-04-06T00:43:48;101975.59;;;1.08;78.15
75418;BME280;63997;52.112;5.420;2023-04-06T00:46:15;101988.91;;;1.06;78.12
75418;BME280;63997;52.112;5.420;2023-04-06T00:48:41;101967.63;;;1.03;78.42
75418;BME280;63997;52.112;5.420;2023-04-06T00:51:08;101976.72;;;1.00;78.27
75418;BME280;63997;52.112;5.420;2023-04-06T00:53:34;101973.19;;;0.95;78.24
75418;BME280;63997;52.112;5.420;2023-04-06T00:56:01;101966.03;;;0.90;78.40
75418;BME280;63997;52.112;5.420;2023-04-06T00:58:27;101963.28;;;0.85;78.52
75418;BME280;63997;52.112;5.420;2023-04-06T01:00:54;101965.31;;;0.83;78.58
75418;BME280;63997;52.112;5.420;2023-04-06T01:03:20;101967.72;;;0.85;78.76
75418;BME280;63997;52.112;5.420;2023-04-06T01:05:47;101967.25;;;0.88;78.70
75418;BME280;63997;52.112;5.420;2023-04-06T01:08:13;101960.44;;;0.87;78.58
75418;BME280;63997;52.112;5.420;2023-04-06T01:10:40;101963.72;;;0.82;78.50
75418;BME280;63997;52.112;5.420;2023-04-06T01:13:06;101950.88;;;0.81;78.59
75418;BME280;63997;52.112;5.420;2023-04-06T01:15:35;101947.22;;;0.82;78.62
75418;BME280;63997;52.112;5.420;2023-04-06T01:18:04;101945.53;;;0.87;78.89
75418;BME280;63997;52.112;5.420;2023-04-06T01:20:33;101944.06;;;0.91;79.15
75418;BME280;63997;52.112;5.420;2023-04-06T01:22:59;101937.00;;;0.92;79.21
75418;BME280;63997;52.112;5.420;2023-04-06T01:25:25;101933.78;;;0.90;79.02
75418;BME280;63997;52.112;5.420;2023-04-06T01:27:52;101936.88;;;0.87;79.27
75418;BME280;63997;52.112;5.420;2023-04-06T01:30:18;101932.66;;;0.86;79.25
75418;BME280;63997;52.112;5.420;2023-04-06T01:32:45;101937.91;;;0.86;79.31
75418;BME280;63997;52.112;5.420;2023-04-06T01:35:11;101936.41;;;0.90;79.41
75418;BME280;63997;52.112;5.420;2023-04-06T01:37:37;101927.06;;;0.94;79.38
75418;BME280;63997;52.112;5.420;2023-04-06T01:40:04;101922.19;;;0.97;79.02
75418;BME280;63997;52.112;5.420;2023-04-06T01:42:31;101928.00;;;0.99;79.05
75418;BME280;63997;52.112;5.420;2023-04-06T01:44:57;101915.94;;;0.98;79.00
75418;BME280;63997;52.112;5.420;2023-04-06T01:47:24;101918.78;;;0.97;78.76
75418;BME280;63997;52.112;5.420;2023-04-06T01:49:50;101916.72;;;0.99;78.84
75418;BME280;63997;52.112;5.420;2023-04-06T01:52:17;101904.09;;;0.96;78.77
75418;BME280;63997;52.112;5.420;2023-04-06T01:54:44;101905.69;;;0.97;78.58
75418;BME280;63997;52.112;5.420;2023-04-06T01:57:10;101903.06;;;0.97;78.60
75418;BME280;63997;52.112;5.420;2023-04-06T01:59:37;101896.78;;;0.98;78.23
75418;BME280;63997;52.112;5.420;2023-04-06T02:02:03;101905.22;;;1.00;78.29
75418;BME280;63997;52.112;5.420;2023-04-06T02:04:30;101898.25;;;1.05;78.36
75418;BME280;63997;52.112;5.420;2023-04-06T02:06:56;101892.56;;;1.09;78.60
75418;BME280;63997;52.112;5.420;2023-04-06T02:09:22;101893.72;;;1.13;78.92
75418;BME280;63997;52.112;5.420;2023-04-06T02:11:49;101893.25;;;1.16;78.84
75418;BME280;63997;52.112;5.420;2023-04-06T02:14:15;101890.38;;;1.17;78.70
75418;BME280;63997;52.112;5.420;2023-04-06T02:16:41;101879.34;;;1.15;78.65
75418;BME280;63997;52.112;5.420;2023-04-06T02:19:08;101872.06;;;1.17;78.86
75418;BME280;63997;52.112;5.420;2023-04-06T02:21:34;101873.66;;;1.18;78.86
75418;BME280;63997;52.112;5.420;2023-04-06T02:24:01;101875.00;;;1.21;79.33
75418;BME280;63997;52.112;5.420;2023-04-06T02:26:27;101872.50;;;1.26;79.38
75418;BME280;63997;52.112;5.420;2023-04-06T02:28:54;101866.56;;;1.30;79.72
75418;BME280;63997;52.112;5.420;2023-04-06T02:31:20;101872.94;;;1.35;79.70
75418;BME280;63997;52.112;5.420;2023-04-06T02:33:46;101870.41;;;1.40;79.89
75418;BME280;63997;52.112;5.420;2023-04-06T02:36:13;101862.91;;;1.43;79.72
75418;BME280;63997;52.112;5.420;2023-04-06T02:38:39;101865.06;;;1.46;79.94
75418;BME280;63997;52.112;5.420;2023-04-06T02:41:05;101870.63;;;1.50;79.82
75418;BME280;63997;52.112;5.420;2023-04-06T02:43:32;101861.50;;;1.52;79.63
75418;BME280;63997;52.112;5.420;2023-04-06T02:45:58;101862.84;;;1.55;79.58
75418;BME280;63997;52.112;5.420;2023-04-06T02:48:25;101851.34;;;1.56;79.62
75418;BME280;63997;52.112;5.420;2023-04-06T02:50:51;101849.28;;;1.58;79.50
75418;BME280;63997;52.112;5.420;2023-04-06T02:53:18;101848.56;;;1.63;79.94
75418;BME280;63997;52.112;5.420;2023-04-06T02:55:44;101841.84;;;1.67;79.88
75418;BME280;63997;52.112;5.420;2023-04-06T02:58:10;101841.13;;;1.71;79.86
75418;BME280;63997;52.112;5.420;2023-04-06T03:00:37;101840.44;;;1.76;79.99
75418;BME280;63997;52.112;5.420;2023-04-06T03:03:03;101837.56;;;1.77;79.88
75418;BME280;63997;52.112;5.420;2023-04-06T03:05:30;101824.00;;;1.80;79.84
75418;BME280;63997;52.112;5.420;2023-04-06T03:07:56;101830.03;;;1.81;79.63
75418;BME280;63997;52.112;5.420;2023-04-06T03:10:23;101826.06;;;1.78;79.94
75418;BME280;63997;52.112;5.420;2023-04-06T03:12:49;101834.50;;;1.80;80.08
75418;BME280;63997;52.112;5.420;2023-04-06T03:15:15;101831.16;;;1.85;80.27
75418;BME280;63997;52.112;5.420;2023-04-06T03:17:42;101829.09;;;1.87;80.21
75418;BME280;63997;52.112;5.420;2023-04-06T03:20:08;101829.41;;;1.91;80.12
75418;BME280;63997;52.112;5.420;2023-04-06T03:22:35;101824.75;;;1.93;80.15
75418;BME280;63997;52.112;5.420;2023-04-06T03:25:01;101823.69;;;1.94;80.05
75418;BME280;63997;52.112;5.420;2023-04-06T03:27:29;101818.00;;;1.97;80.20
75418;BME280;63997;52.112;5.420;2023-04-06T03:29:55;101815.91;;;1.99;80.48
75418;BME280;63997;52.112;5.420;2023-04-06T03:32:22;101815.91;;;1.99;80.66
75418;BME280;63997;52.112;5.420;2023-04-06T03:34:48;101816.47;;;2.01;80.63
75418;BME280;63997;52.112;5.420;2023-04-06T03:37:14;101813.38;;;2.04;80.68
75418;BME280;63997;52.112;5.420;2023-04-06T03:39:41;101809.25;;;2.08;80.67
75418;BME280;63997;52.112;5.420;2023-04-06T03:42:07;101806.16;;;2.11;80.78
75418;BME280;63997;52.112;5.420;2023-04-06T03:44:33;101808.06;;;2.16;80.73
75418;BME280;63997;52.112;5.420;2023-04-06T03:47:00;101807.34;;;2.20;80.76
75418;BME280;63997;52.112;5.420;2023-04-06T03:49:28;101809.72;;;2.22;80.81
75418;BME280;63997;52.112;5.420;2023-04-06T03:51:56;101807.44;;;2.25;80.70
75418;BME280;63997;52.112;5.420;2023-04-06T03:54:22;101805.34;;;2.27;81.09
75418;BME280;63997;52.112;5.420;2023-04-06T03:56:48;101803.53;;;2.28;80.68
75418;BME280;63997;52.112;5.420;2023-04-06T03:59:15;101803.53;;;2.28;80.52
75418;BME280;63997;52.112;5.420;2023-04-06T04:01:42;101798.19;;;2.23;80.10
75418;BME280;63997;52.112;5.420;2023-04-06T04:04:10;101803.34;;;2.18;80.15
75418;BME280;63997;52.112;5.420;2023-04-06T04:06:36;101796.19;;;2.13;80.11
75418;BME280;63997;52.112;5.420;2023-04-06T04:09:02;101793.03;;;2.11;80.26
75418;BME280;63997;52.112;5.420;2023-04-06T04:11:29;101798.75;;;2.08;80.08
75418;BME280;63997;52.112;5.420;2023-04-06T04:13:55;101789.53;;;2.05;80.09
75418;BME280;63997;52.112;5.420;2023-04-06T04:16:22;101791.34;;;2.05;80.20
75418;BME280;63997;52.112;5.420;2023-04-06T04:18:48;101795.56;;;2.06;79.76
75418;BME280;63997;52.112;5.420;2023-04-06T04:21:15;101790.91;;;2.08;79.89
75418;BME280;63997;52.112;5.420;2023-04-06T04:23:41;101796.13;;;2.08;79.61
75418;BME280;63997;52.112;5.420;2023-04-06T04:26:07;101788.28;;;2.08;79.60
75418;BME280;63997;52.112;5.420;2023-04-06T04:28:34;101796.94;;;2.08;79.41
75418;BME280;63997;52.112;5.420;2023-04-06T04:31:01;101795.09;;;2.09;79.32
75418;BME280;63997;52.112;5.420;2023-04-06T04:33:27;101795.19;;;2.14;79.63
75418;BME280;63997;52.112;5.420;2023-04-06T04:35:53;101795.28;;;2.19;79.89
75418;BME280;63997;52.112;5.420;2023-04-06T04:38:20;101790.81;;;2.20;79.64
75418;BME280;63997;52.112;5.420;2023-04-06T04:40:46;101791.34;;;2.22;79.67
75418;BME280;63997;52.112;5.420;2023-04-06T04:43:13;101791.34;;;2.22;79.95
75418;BME280;63997;52.112;5.420;2023-04-06T04:45:39;101794.78;;;2.22;79.95
75418;BME280;63997;52.112;5.420;2023-04-06T04:48:05;101792.16;;;2.22;79.66
75418;BME280;63997;52.112;5.420;2023-04-06T04:50:34;101786.66;;;2.24;80.09
75418;BME280;63997;52.112;5.420;2023-04-06T04:53:00;101790.66;;;2.26;79.88
75418;BME280;63997;52.112;5.420;2023-04-06T04:55:27;101789.94;;;2.31;79.25
75418;BME280;63997;52.112;5.420;2023-04-06T04:57:53;101790.22;;;2.34;79.01
75418;BME280;63997;52.112;5.420;2023-04-06T05:00:20;101795.56;;;2.39;78.65
75418;BME280;63997;52.112;5.420;2023-04-06T05:02:47;101789.13;;;2.47;78.29
75418;BME280;63997;52.112;5.420;2023-04-06T05:05:13;101781.06;;;2.54;78.16
75418;BME280;63997;52.112;5.420;2023-04-06T05:07:40;101782.16;;;2.58;77.56
75418;BME280;63997;52.112;5.420;2023-04-06T05:10:06;101782.72;;;2.60;77.41
75418;BME280;63997;52.112;5.420;2023-04-06T05:12:33;101770.47;;;2.65;77.13
75418;BME280;63997;52.112;5.420;2023-04-06T05:14:59;101778.69;;;2.74;76.92
75418;BME280;63997;52.112;5.420;2023-04-06T05:17:26;101773.50;;;2.79;76.46
75418;BME280;63997;52.112;5.420;2023-04-06T05:19:52;101775.75;;;2.87;75.79
75418;BME280;63997;52.112;5.420;2023-04-06T05:22:18;101777.13;;;2.95;75.62
75418;BME280;63997;52.112;5.420;2023-04-06T05:24:45;101777.75;;;3.02;75.15
75418;BME280;63997;52.112;5.420;2023-04-06T05:27:11;101775.16;;;3.07;74.91
75418;BME280;63997;52.112;5.420;2023-04-06T05:29:38;101769.72;;;3.14;74.68
75418;BME280;63997;52.112;5.420;2023-04-06T05:32:05;101774.81;;;3.21;74.22
75418;BME280;63997;52.112;5.420;2023-04-06T05:34:32;101770.41;;;3.26;73.40
75418;BME280;63997;52.112;5.420;2023-04-06T05:36:58;101759.44;;;3.34;73.73
75418;BME280;63997;52.112;5.420;2023-04-06T05:39:25;101772.16;;;3.42;73.51
75418;BME280;63997;52.112;5.420;2023-04-06T05:41:51;101771.44;;;3.52;73.05
75418;BME280;63997;52.112;5.420;2023-04-06T05:44:18;101771.53;;;3.62;72.91
75418;BME280;63997;52.112;5.420;2023-04-06T05:46:46;101765.59;;;3.72;72.80
75418;BME280;63997;52.112;5.420;2023-04-06T05:49:13;101763.78;;;3.78;72.73
75418;BME280;63997;52.112;5.420;2023-04-06T05:51:39;101769.91;;;3.83;72.52
75418;BME280;63997;52.112;5.420;2023-04-06T05:54:06;101763.09;;;3.87;72.24
75418;BME280;63997;52.112;5.420;2023-04-06T05:56:32;101764.16;;;3.91;72.29
75418;BME280;63997;52.112;5.420;2023-04-06T05:58:59;101761.84;;;3.95;71.79
75418;BME280;63997;52.112;5.420;2023-04-06T06:01:25;101759.25;;;4.00;71.67
75418;BME280;63997;52.112;5.420;2023-04-06T06:03:52;101751.13;;;4.07;71.41
75418;BME280;63997;52.112;5.420;2023-04-06T06:06:18;101759.06;;;4.12;71.98
75418;BME280;63997;52.112;5.420;2023-04-06T06:08:44;101752.78;;;4.18;71.63
75418;BME280;63997;52.112;5.420;2023-04-06T06:11:11;101757.56;;;4.21;71.61
75418;BME280;63997;52.112;5.420;2023-04-06T06:13:37;101755.44;;;4.23;71.68
75418;BME280;63997;52.112;5.420;2023-04-06T06:16:04;101752.84;;;4.28;71.38
75418;BME280;63997;52.112;5.420;2023-04-06T06:18:31;101765.53;;;4.36;71.77
75418;BME280;63997;52.112;5.420;2023-04-06T06:20:58;101754.25;;;4.41;71.71
75418;BME280;63997;52.112;5.420;2023-04-06T06:23:25;101750.31;;;4.43;72.07
75418;BME280;63997;52.112;5.420;2023-04-06T06:25:51;101756.13;;;4.45;71.83
75418;BME280;63997;52.112;5.420;2023-04-06T06:28:17;101751.38;;;4.47;71.88
75418;BME280;63997;52.112;5.420;2023-04-06T06:30:44;101756.66;;;4.53;72.25
75418;BME280;63997;52.112;5.420;2023-04-06T06:33:10;101751.97;;;4.55;72.01
75418;BME280;63997;52.112;5.420;2023-04-06T06:35:37;101754.59;;;4.60;72.40
75418;BME280;63997;52.112;5.420;2023-04-06T06:38:03;101752.78;;;4.65;72.00
75418;BME280;63997;52.112;5.420;2023-04-06T06:40:29;101756.00;;;4.72;71.88
75418;BME280;63997;52.112;5.420;2023-04-06T06:42:56;101752.59;;;4.82;72.35
75418;BME280;63997;52.112;5.420;2023-04-06T06:45:22;101752.63;;;4.92;72.36
75418;BME280;63997;52.112;5.420;2023-04-06T06:47:49;101745.28;;;5.04;71.88
75418;BME280;63997;52.112;5.420;2023-04-06T06:50:20;101753.53;;;5.18;72.39
75418;BME280;63997;52.112;5.420;2023-04-06T06:52:46;101749.34;;;5.38;72.22
75418;BME280;63997;52.112;5.420;2023-04-06T06:55:13;101754.91;;;5.67;71.87
75418;BME280;63997;52.112;5.420;2023-04-06T06:57:39;101750.97;;;6.10;70.52
75418;BME280;63997;52.112;5.420;2023-04-06T07:00:09;101748.97;;;6.72;69.59
75418;BME280;63997;52.112;5.420;2023-04-06T07:02:39;101745.72;;;7.74;67.88
75418;BME280;63997;52.112;5.420;2023-04-06T07:05:06;101743.38;;;7.72;65.48
75418;BME280;63997;52.112;5.420;2023-04-06T07:07:53;101742.47;;;7.53;65.23
75418;BME280;63997;52.112;5.420;2023-04-06T07:10:20;101740.28;;;7.21;64.10
75418;BME280;63997;52.112;5.420;2023-04-06T07:12:47;101735.69;;;6.92;64.18
75418;BME280;63997;52.112;5.420;2023-04-06T07:15:13;101741.59;;;6.74;65.15
75418;BME280;63997;52.112;5.420;2023-04-06T07:17:40;101742.94;;;6.61;65.12
75418;BME280;63997;52.112;5.420;2023-04-06T07:20:12;101734.78;;;6.52;65.40
75418;BME280;63997;52.112;5.420;2023-04-06T07:22:39;101732.94;;;6.43;65.09
75418;BME280;63997;52.112;5.420;2023-04-06T07:25:05;101739.59;;;6.35;65.41
75418;BME280;63997;52.112;5.420;2023-04-06T07:27:32;101729.03;;;6.30;65.04
75418;BME280;63997;52.112;5.420;2023-04-06T07:29:58;101729.56;;;6.22;65.75
75418;BME280;63997;52.112;5.420;2023-04-06T07:32:24;101731.41;;;6.21;65.77
75418;BME280;63997;52.112;5.420;2023-04-06T07:34:51;101727.47;;;6.19;65.18
75418;BME280;63997;52.112;5.420;2023-04-06T07:37:18;101735.38;;;6.19;66.13
75418;BME280;63997;52.112;5.420;2023-04-06T07:39:44;101738.03;;;6.19;66.00
75418;BME280;63997;52.112;5.420;2023-04-06T07:42:12;101735.38;;;6.19;66.21
75418;BME280;63997;52.112;5.420;2023-04-06T07:44:38;101728.78;;;6.21;66.37
75418;BME280;63997;52.112;5.420;2023-04-06T07:47:04;101734.84;;;6.22;66.71
75418;BME280;63997;52.112;5.420;2023-04-06T07:49:32;101725.59;;;6.24;66.24
75418;BME280;63997;52.112;5.420;2023-04-06T07:51:59;101734.03;;;6.26;66.60
75418;BME280;63997;52.112;5.420;2023-04-06T07:54:25;101736.69;;;6.31;66.78
75418;BME280;63997;52.112;5.420;2023-04-06T07:56:53;101727.16;;;6.35;66.88
75418;BME280;63997;52.112;5.420;2023-04-06T07:59:20;101728.47;;;6.43;67.19
75418;BME280;63997;52.112;5.420;2023-04-06T08:01:47;101736.09;;;6.50;66.48
75418;BME280;63997;52.112;5.420;2023-04-06T08:04:14;101734.75;;;6.57;65.76
75418;BME280;63997;52.112;5.420;2023-04-06T08:06:41;101733.41;;;6.65;66.01
75418;BME280;63997;52.112;5.420;2023-04-06T08:09:08;101733.13;;;6.72;66.15
75418;BME280;63997;52.112;5.420;2023-04-06T08:11:34;101732.00;;;6.83;66.01
75418;BME280;63997;52.112;5.420;2023-04-06T08:14:01;101734.09;;;6.91;66.20
75418;BME280;63997;52.112;5.420;2023-04-06T08:16:27;101729.81;;;7.00;66.14
75418;BME280;63997;52.112;5.420;2023-04-06T08:18:53;101736.66;;;7.06;66.29
75418;BME280;63997;52.112;5.420;2023-04-06T08:21:20;101723.94;;;7.13;65.95
75418;BME280;63997;52.112;5.420;2023-04-06T08:23:46;101724.94;;;7.18;65.82
75418;BME280;63997;52.112;5.420;2023-04-06T08:26:13;101727.06;;;7.21;65.92
75418;BME280;63997;52.112;5.420;2023-04-06T08:28:39;101722.25;;;7.28;65.63
75418;BME280;63997;52.112;5.420;2023-04-06T08:31:06;101724.84;;;7.33;64.77
75418;BME280;63997;52.112;5.420;2023-04-06T08:33:33;101719.03;;;7.36;65.41
75418;BME280;63997;52.112;5.420;2023-04-06T08:36:13;101724.03;;;7.37;65.05
75418;BME280;63997;52.112;5.420;2023-04-06T08:38:41;101722.66;;;7.45;64.99
75418;BME280;63997;52.112;5.420;2023-04-06T08:41:12;101718.44;;;7.44;65.03
75418;BME280;63997;52.112;5.420;2023-04-06T08:43:44;101721.00;;;7.54;65.53
75418;BME280;63997;52.112;5.420;2023-04-06T08:46:13;101719.34;;;7.63;65.25
75418;BME280;63997;52.112;5.420;2023-04-06T08:48:41;101714.31;;;7.62;64.50
75418;BME280;63997;52.112;5.420;2023-04-06T08:51:09;101710.34;;;7.64;64.33
75418;BME280;63997;52.112;5.420;2023-04-06T08:53:36;101713.44;;;7.72;64.17
75418;BME280;63997;52.112;5.420;2023-04-06T08:56:03;101715.56;;;7.75;64.09
75418;BME280;63997;52.112;5.420;2023-04-06T08:58:34;101717.13;;;7.76;65.31
75418;BME280;63997;52.112;5.420;2023-04-06T09:01:08;101714.41;;;7.86;64.54
75418;BME280;63997;52.112;5.420;2023-04-06T09:03:39;101722.81;;;7.93;65.00
75418;BME280;63997;52.112;5.420;2023-04-06T09:06:07;101714.81;;;7.98;64.95
75418;BME280;63997;52.112;5.420;2023-04-06T09:08:35;101721.59;;;8.09;64.71
75418;BME280;63997;52.112;5.420;2023-04-06T09:11:02;101717.25;;;8.18;65.13
75418;BME280;63997;52.112;5.420;2023-04-06T09:13:29;101714.03;;;8.21;64.13
75418;BME280;63997;52.112;5.420;2023-04-06T09:16:03;101722.91;;;8.36;64.59
75418;BME280;63997;52.112;5.420;2023-04-06T09:18:30;101720.69;;;8.48;65.47
75418;BME280;63997;52.112;5.420;2023-04-06T09:21:03;101726.97;;;8.52;63.98
75418;BME280;63997;52.112;5.420;2023-04-06T09:23:30;101719.25;;;8.56;62.80
75418;BME280;63997;52.112;5.420;2023-04-06T09:26:11;101721.00;;;8.65;64.59
75418;BME280;63997;52.112;5.420;2023-04-06T09:28:44;101720.59;;;8.77;63.42
75418;BME280;63997;52.112;5.420;2023-04-06T09:31:13;101710.78;;;8.78;63.26
75418;BME280;63997;52.112;5.420;2023-04-06T09:33:41;101715.78;;;8.79;63.66
75418;BME280;63997;52.112;5.420;2023-04-06T09:36:08;101721.44;;;8.72;62.43
75418;BME280;63997;52.112;5.420;2023-04-06T09:38:52;101715.84;;;8.74;62.79
75418;BME280;63997;52.112;5.420;2023-04-06T09:41:26;101719.81;;;8.77;62.05
75418;BME280;63997;52.112;5.420;2023-04-06T09:44:10;101715.00;;;8.79;63.51
75418;BME280;63997;52.112;5.420;2023-04-06T09:46:45;101717.03;;;8.87;63.38
75418;BME280;63997;52.112;5.420;2023-04-06T09:49:30;101712.78;;;8.86;64.34
75418;BME280;63997;52.112;5.420;2023-04-06T09:51:59;101720.47;;;8.87;64.80
75418;BME280;63997;52.112;5.420;2023-04-06T09:54:29;101713.31;;;8.88;64.43
75418;BME280;63997;52.112;5.420;2023-04-06T09:57:23;101718.19;;;8.99;65.36
75418;BME280;63997;52.112;5.420;2023-04-06T10:00:05;101718.91;;;9.05;64.52
75418;BME280;63997;52.112;5.420;2023-04-06T10:03:02;101713.47;;;9.15;65.15
75418;BME280;63997;52.112;5.420;2023-04-06T10:05:54;101710.06;;;9.28;65.67
75418;BME280;63997;52.112;5.420;2023-04-06T10:08:24;101712.66;;;9.34;65.97
75418;BME280;63997;52.112;5.420;2023-04-06T10:11:11;101713.59;;;9.43;65.81
75418;BME280;63997;52.112;5.420;2023-04-06T10:13:38;101718.78;;;9.48;65.56
75418;BME280;63997;52.112;5.420;2023-04-06T10:16:05;101721.53;;;9.43;65.23
75418;BME280;63997;52.112;5.420;2023-04-06T10:18:34;101721.19;;;9.49;65.61
75418;BME280;63997;52.112;5.420;2023-04-06T10:21:09;101720.81;;;9.56;65.78
75418;BME280;63997;52.112;5.420;2023-04-06T10:23:48;101718.56;;;9.63;65.76
75418;BME280;63997;52.112;5.420;2023-04-06T10:26:21;101717.13;;;9.52;66.03
75418;BME280;63997;52.112;5.420;2023-04-06T10:28:49;101720.81;;;9.56;66.13
75418;BME280;63997;52.112;5.420;2023-04-06T10:31:24;101720.38;;;9.49;66.33
75418;BME280;63997;52.112;5.420;2023-04-06T10:33:59;101710.13;;;9.42;66.78
75418;BME280;63997;52.112;5.420;2023-04-06T10:36:34;101719.94;;;9.42;68.03
75418;BME280;63997;52.112;5.420;2023-04-06T10:39:03;101721.09;;;9.36;67.82
75418;BME280;63997;52.112;5.420;2023-04-06T10:41:45;101722.41;;;9.19;68.70
75418;BME280;63997;52.112;5.420;2023-04-06T10:44:24;101723.56;;;9.13;69.35
75418;BME280;63997;52.112;5.420;2023-04-06T10:46:58;101715.16;;;9.06;70.53
75418;BME280;63997;52.112;5.420;2023-04-06T10:49:27;101715.72;;;9.03;71.55
75418;BME280;63997;52.112;5.420;2023-04-06T10:51:55;101720.53;;;9.01;72.30
75418;BME280;63997;52.112;5.420;2023-04-06T10:54:24;101716.31;;;9.00;73.28
75418;BME280;63997;52.112;5.420;2023-04-06T10:56:51;101714.09;;;9.07;73.11
75418;BME280;63997;52.112;5.420;2023-04-06T10:59:20;101707.50;;;9.05;73.63
75418;BME280;63997;52.112;5.420;2023-04-06T11:01:48;101711.50;;;9.02;74.06
75418;BME280;63997;52.112;5.420;2023-04-06T11:04:19;101712.94;;;8.94;74.49
75418;BME280;63997;52.112;5.420;2023-04-06T11:06:47;101710.34;;;8.89;75.40
75418;BME280;63997;52.112;5.420;2023-04-06T11:09:24;101709.13;;;8.82;75.02
75418;BME280;63997;52.112;5.420;2023-04-06T11:11:53;101702.03;;;8.77;76.38
75418;BME280;63997;52.112;5.420;2023-04-06T11:14:20;101705.47;;;8.78;75.86
75418;BME280;63997;52.112;5.420;2023-04-06T11:16:48;101700.22;;;8.72;76.43
75418;BME280;63997;52.112;5.420;2023-04-06T11:19:16;101698.66;;;8.71;77.00
75418;BME280;63997;52.112;5.420;2023-04-06T11:21:47;101688.59;;;8.68;76.37
75418;BME280;63997;52.112;5.420;2023-04-06T11:24:19;101698.44;;;8.68;76.86
75418;BME280;63997;52.112;5.420;2023-04-06T11:26:57;101696.00;;;8.71;77.99
75418;BME280;63997;52.112;5.420;2023-04-06T11:29:28;101684.88;;;8.69;76.90
75418;BME280;63997;52.112;5.420;2023-04-06T11:32:01;101687.53;;;8.69;76.81
75418;BME280;63997;52.112;5.420;2023-04-06T11:34:36;101689.31;;;8.74;77.60
75418;BME280;63997;52.112;5.420;2023-04-06T11:37:07;101682.22;;;8.69;78.22
75418;BME280;63997;52.112;5.420;2023-04-06T11:42:21;101684.38;;;8.67;77.33
75418;BME280;63997;52.112;5.420;2023-04-06T11:44:50;101687.09;;;8.62;77.75
75418;BME280;63997;52.112;5.420;2023-04-06T11:47:17;101664.75;;;8.68;79.38
75418;BME280;63997;52.112;5.420;2023-04-06T11:49:43;101669.69;;;8.75;79.54
75418;BME280;63997;52.112;5.420;2023-04-06T11:52:18;101669.25;;;8.68;78.07
75418;BME280;63997;52.112;5.420;2023-04-06T11:54:46;101668.47;;;8.67;78.54
75418;BME280;63997;52.112;5.420;2023-04-06T11:57:13;101672.44;;;8.70;78.79
75418;BME280;63997;52.112;5.420;2023-04-06T11:59:40;101656.00;;;8.68;78.03
75418;BME280;63997;52.112;5.420;2023-04-06T12:02:07;101658.72;;;8.63;78.57
75418;BME280;63997;52.112;5.420;2023-04-06T12:04:33;101658.72;;;8.63;79.07
75418;BME280;63997;52.112;5.420;2023-04-06T12:07:01;101664.53;;;8.65;79.72
75418;BME280;63997;52.112;5.420;2023-04-06T12:09:27;101653.41;;;8.63;79.59
75418;BME280;63997;52.112;5.420;2023-04-06T12:11:54;101643.59;;;8.63;79.07
75418;BME280;63997;52.112;5.420;2023-04-06T12:14:20;101656.47;;;8.51;79.88
75418;BME280;63997;52.112;5.420;2023-04-06T12:16:47;101656.19;;;8.53;80.34
75418;BME280;63997;52.112;5.420;2023-04-06T12:19:13;101637.13;;;8.51;79.93
75418;BME280;63997;52.112;5.420;2023-04-06T12:21:40;101647.03;;;8.45;79.66
75418;BME280;63997;52.112;5.420;2023-04-06T12:24:06;101641.22;;;8.43;80.06
75418;BME280;63997;52.112;5.420;2023-04-06T12:26:33;101644.94;;;8.42;80.21
75418;BME280;63997;52.112;5.420;2023-04-06T12:28:59;101648.16;;;8.39;79.93
75418;BME280;63997;52.112;5.420;2023-04-06T12:31:44;101645.38;;;8.25;79.86
75418;BME280;63997;52.112;5.420;2023-04-06T12:34:11;101644.66;;;8.19;80.35
75418;BME280;63997;52.112;5.420;2023-04-06T12:36:38;101629.50;;;8.25;80.47
75418;BME280;63997;52.112;5.420;2023-04-06T12:39:05;101641.13;;;8.24;80.74
75418;BME280;63997;52.112;5.420;2023-04-06T12:41:31;101639.06;;;8.21;80.67
75418;BME280;63997;52.112;5.420;2023-04-06T12:43:58;101639.06;;;8.21;80.66
75418;BME280;63997;52.112;5.420;2023-04-06T12:46:26;101640.09;;;8.25;80.71
75418;BME280;63997;52.112;5.420;2023-04-06T12:48:52;101630.28;;;8.26;80.76
75418;BME280;63997;52.112;5.420;2023-04-06T12:51:22;101625.81;;;8.21;80.75
75418;BME280;63997;52.112;5.420;2023-04-06T12:53:49;101623.97;;;8.21;81.05
75418;BME280;63997;52.112;5.420;2023-04-06T12:56:17;101627.09;;;8.23;80.82
75418;BME280;63997;52.112;5.420;2023-04-06T12:58:44;101621.53;;;8.25;80.99
75418;BME280;63997;52.112;5.420;2023-04-06T13:01:11;101617.59;;;8.22;80.98
75418;BME280;63997;52.112;5.420;2023-04-06T13:03:40;101612.56;;;8.21;81.03
75418;BME280;63997;52.112;5.420;2023-04-06T13:06:07;101616.50;;;8.23;81.27
75418;BME280;63997;52.112;5.420;2023-04-06T13:08:37;101612.03;;;8.19;81.10